Chimacum, Washington
Current Conditions -  °F | °C
As of 8:53 AM on Wednesday 22 Oct 2014 (Local Time) from KPAE Reporting Station
Light Rain Light Rain  
Wind Chill: 13°   Ceiling: 800
Heat Index: 13°   Visibility: 6mi
Dew Point: 12°   Wind: 16mph
Humidity: 93%   Direction: 160°SSE
Pressure: 29.71"   Gusts: NA
Location:  48.01°N, 122.77°W
Report Text: KPAE 221553Z 16014KT 6SM -RA BR OVC008 13/12 A2971 RMK AO2 RAB21 SLP059 P0001 T01280117
Loading
Personal Weather Stations






























Interactive Weather Map
Tropical Storm Tracking
New forecast layout! Learn more

10-Day Weather Forecast

Advertisements
Track Severe Weather on mobile